Latest Weather Observations for Kilmore Gap

IDV60801

Issued at 2:42 pm EST Tuesday 25 June 2019 (issued every 10 minutes, with the page automatically refreshed every 10 minutes)

About weather observations | Map of weather stations | Latest weather observations for VIC | Other Formats
Station Details ID: 088162 Name: KILMORE GAP Lat: -37.38 Lon: 144.97 Height: 527.8 m
Data from the previous 72 hours. | See also: Recent months at Kilmore Gap
Date/Time
EST
Temp
°C
App
Temp
°C
Dew
Point
°C
Rel
Hum
%
Delta-T
°C
Wind Press
QNH
hPa
Press
MSL
hPa
Rain since
9am
mm
Dir  Spd
km/h
Gust
km/h
Spd
kts
Gust
kts
25/02:30pm 11.0 6.2 4.5 64 3.0 N 19 24 10 13 1032.8 1033.7 0.0
25/02:00pm 11.0 5.3 4.7 65 2.9 N 24 32 13 17 1032.9 1033.8 0.0
25/01:30pm 10.6 4.8 4.3 65 2.9 N 24 32 13 17 1033.0 1033.9 0.0
25/01:00pm 11.0 5.2 4.5 64 3.0 N 24 32 13 17 1033.2 1034.1 0.0
25/12:30pm 10.8 5.0 4.3 64 3.0 N 24 30 13 16 1033.5 1034.4 0.0
25/12:00pm 10.1 4.0 2.5 59 3.3 N 24 33 13 18 1033.7 1034.6 0.0
25/11:30am 9.7 2.7 1.8 58 3.4 N 28 33 15 18 1033.8 1034.7 0.0
25/11:00am 8.6 1.2 -0.4 53 3.6 N 28 33 15 18 1033.9 1034.8 0.0
25/10:30am 8.4 1.5 0.4 57 3.3 N 26 32 14 17 1034.0 1034.9 0.0
25/10:00am 7.4 0.5 0.4 61 2.8 N 26 32 14 17 1033.7 1034.6 0.0
25/09:30am 6.5 -0.4 0.0 63 2.6 N 26 32 14 17 1033.6 1034.5 0.0
25/09:00am 5.9 -2.2 -0.4 64 2.5 N 32 35 17 19 1033.4 1034.3 0.0
25/08:30am 4.8 -3.4 -0.8 67 2.2 N 32 37 17 20 1033.1 1034.0 0.0
25/08:00am 4.8 -3.0 -0.8 67 2.1 N 30 35 16 19 1032.8 1033.7 0.0
25/07:30am 4.3 -3.5 -0.7 70 1.9 N 30 33 16 18 1032.7 1033.5 0.0
25/07:00am 4.0 -4.1 -0.4 73 1.7 N 32 37 17 20 1032.4 1033.3 0.0
25/06:30am 4.2 -3.9 -0.2 73 1.7 N 32 37 17 20 1032.0 1032.9 0.0
25/06:00am 4.2 -3.9 0.0 74 1.6 N 32 35 17 19 1031.9 1032.8 0.0
25/05:30am 4.5 -3.6 -0.5 70 1.9 N 32 35 17 19 1031.7 1032.6 0.0
25/05:00am 5.2 -2.9 -0.6 66 2.2 N 32 35 17 19 1031.6 1032.5 0.0
25/04:30am 4.8 -2.9 -0.4 69 2.0 N 30 35 16 19 1031.4 1032.3 0.0
25/04:00am 4.9 -2.9 -0.5 68 2.1 N 30 33 16 18 1031.4 1032.3 0.0
25/03:30am 5.0 -2.4 -0.6 67 2.2 N 28 33 15 18 1031.5 1032.4 0.0
25/03:00am 5.0 -2.0 -0.2 69 2.0 N 26 32 14 17 1031.7 1032.6 0.0
25/02:30am 5.0 -1.2 -0.2 69 2.0 NNE 22 24 12 13 1031.8 1032.7 0.0
25/02:00am 5.7 -0.4 0.1 67 2.2 NNE 22 24 12 13 1031.9 1032.8 0.0
25/01:30am 5.3 -0.4 0.7 72 1.9 N 20 22 11 12 1032.2 1033.1 0.0
25/01:00am 5.7 0.2 0.3 68 2.1 NNE 19 22 10 12 1032.4 1033.3 0.0
25/12:30am 6.0 1.2 0.1 66 2.4 N 15 19 8 10 1032.6 1033.4 0.0
25/12:00am 5.6 0.7 -0.2 66 2.3 NNE 15 19 8 10 1032.6 1033.4 0.0
 
Date/Time
EST
Temp
°C
App
Temp
°C
Dew
Point
°C
Rel
Hum
%
Delta-T
°C
Wind Press
QNH
hPa
Press
MSL
hPa
Rain since
9am
mm
Dir  Spd
km/h
Gust
km/h
Spd
kts
Gust
kts
24/11:30pm 5.9 0.6 -0.8 62 2.6 NNE 17 20 9 11 1032.6 1033.4 0.0
24/11:00pm 6.4 1.0 -1.2 58 2.9 NNE 17 20 9 11 1032.3 1033.2 0.0
24/10:30pm 5.8 0.5 -0.5 64 2.5 NNE 17 20 9 11 1032.4 1033.3 0.0
24/10:00pm 7.0 2.4 -0.9 57 3.1 N 13 15 7 8 1032.8 1033.7 0.0
24/09:30pm 7.2 2.9 1.3 66 2.5 N 13 13 7 7 1032.9 1033.8 0.0
24/09:00pm 7.3 3.3 0.3 61 2.8 NNE 11 13 6 7 1032.9 1033.8 0.0
24/08:30pm 7.4 4.4 2.3 70 2.2 N 7 13 4 7 1033.0 1033.9 0.0
24/08:00pm 8.4 6.6 1.1 60 3.0 CALM 0 6 0 3 1032.8 1033.7 0.0
24/07:30pm 8.1 5.3 3.0 70 2.2 N 7 9 4 5 1032.4 1033.3 0.0
24/07:00pm 7.6 4.4 3.1 73 1.9 N 9 11 5 6 1032.2 1033.1 0.0
24/06:30pm 7.0 2.7 3.1 76 1.7 NNE 15 15 8 8 1032.2 1033.1 0.0
24/06:00pm 7.2 3.3 3.4 77 1.6 NNE 13 15 7 8 1032.2 1033.1 0.0
24/05:30pm 7.5 3.7 3.7 77 1.7 NNW 13 15 7 8 1032.2 1033.1 0.0
24/05:00pm 7.6 3.4 3.8 77 1.7 NNW 15 17 8 9 1031.9 1032.8 0.0
24/04:30pm 8.6 4.1 4.2 74 2.0 N 17 20 9 11 1031.7 1032.6 0.0
24/04:00pm 9.7 4.8 4.1 68 2.5 N 19 22 10 12 1031.5 1032.4 0.0
24/03:30pm 10.0 4.6 2.4 59 3.3 N 20 24 11 13 1031.3 1032.2 0.0
24/03:00pm 10.3 5.1 3.6 63 3.0 N 20 24 11 13 1031.1 1031.9 0.0
24/02:30pm 10.1 4.9 3.6 64 2.9 N 20 26 11 14 1031.0 1031.8 0.0
24/02:00pm 10.3 4.8 4.2 66 2.8 N 22 24 12 13 1031.0 1031.8 0.0
24/01:30pm 10.0 4.9 4.2 67 2.7 N 20 26 11 14 1031.1 1031.9 0.0
24/01:00pm 10.0 4.9 4.2 67 2.6 N 20 24 11 13 1031.4 1032.3 0.0
24/12:30pm 9.8 4.9 4.0 67 2.6 N 19 24 10 13 1031.6 1032.5 0.0
24/12:00pm 9.2 4.2 3.4 67 2.6 N 19 22 10 12 1031.9 1032.8 0.0
24/11:30am 9.1 4.1 3.5 68 2.5 N 19 22 10 12 1032.2 1033.1 0.0
24/11:00am 8.3 2.6 3.0 69 2.3 N 22 28 12 15 1032.4 1033.3 0.0
24/10:30am 7.6 2.3 2.9 72 2.0 N 20 24 11 13 1032.6 1033.4 0.0
24/10:00am 7.0 1.6 2.7 74 1.8 N 20 24 11 13 1032.6 1033.4 0.0
24/09:30am 5.7 -0.2 2.0 77 1.5 N 22 24 12 13 1032.6 1033.4 0.0
24/09:00am 5.1 -0.5 1.2 76 1.6 N 20 24 11 13 1032.4 1033.3 0.0
24/08:30am 4.6 -1.0 0.9 77 1.5 N 20 24 11 13 1032.3 1033.2 0.0
24/08:00am 3.8 -1.9 0.5 79 1.3 N 20 24 11 13 1032.2 1033.1 0.0
24/07:30am 3.3 -2.5 0.2 80 1.2 N 20 22 11 12 1032.0 1032.9 0.0
24/07:00am 4.0 -1.6 0.2 76 1.5 N 19 20 10 11 1031.9 1032.8 0.0
24/06:30am 3.6 -2.0 0.1 78 1.4 N 19 20 10 11 1031.9 1032.8 0.0
24/06:00am 4.2 0.2 0.4 76 1.5 N 11 15 6 8 1031.7 1032.6 0.0
24/05:30am 3.6 -0.2 1.6 87 0.8 N 11 11 6 6 1031.5 1032.4 0.0
24/05:00am 3.2 0.4 3.1 99 0.0 NNE 7 9 4 5 1031.6 1032.5 0.0
24/04:30am 3.5 1.0 3.5 100 0.0 N 6 7 3 4 1031.5 1032.4 0.0
24/04:00am 3.1 -0.1 3.1 100 0.0 ENE 9 9 5 5 1031.2 1032.1 0.0
24/03:52am 3.0 0.2 3.0 100 0.0 NNE 7 9 4 5 1031.2 1032.1 0.0
24/03:30am 2.3 -0.5 2.3 100 0.0 WNW 6 11 3 6 1031.3 1032.2 0.0
24/03:00am 2.6 -1.1 2.6 100 0.0 WSW 11 17 6 9 1031.5 1032.4 0.0
24/02:30am 2.7 -0.2 2.7 100 0.0 SSW 7 11 4 6 1031.4 1032.3 0.0
24/02:00am 2.8 -0.4 2.8 100 0.0 SW 9 13 5 7 1031.4 1032.3 0.0
24/01:30am 3.0 -0.2 3.0 100 0.0 SSW 9 15 5 8 1031.2 1032.1 0.0
24/01:00am 3.0 -0.6 3.0 100 0.0 SW 11 13 6 7 1031.0 1031.8 0.0
24/12:30am 3.2 -0.4 3.2 100 0.0 SW 11 15 6 8 1031.1 1031.9 0.0
24/12:00am 3.2 0.0 3.2 100 0.0 SW 9 13 5 7 1031.1 1031.9 0.0
 
Date/Time
EST
Temp
°C
App
Temp
°C
Dew
Point
°C
Rel
Hum
%
Delta-T
°C
Wind Press
QNH
hPa
Press
MSL
hPa
Rain since
9am
mm
Dir  Spd
km/h
Gust
km/h
Spd
kts
Gust
kts
23/11:30pm 3.3 -1.4 3.3 100 0.0 SSE 17 20 9 11 1031.0 1031.8 0.0
23/11:00pm 3.8 -0.8 3.8 100 0.0 SSE 17 20 9 11 1031.0 1031.8 0.0
23/10:30pm 3.8 -1.4 3.8 100 0.0 SSE 20 26 11 14 1031.1 1031.9 0.0
23/10:00pm 3.8 -2.1 3.8 100 0.0 SSE 24 33 13 18 1031.4 1032.3 0.0
23/09:30pm 3.8 -1.4 3.8 100 0.0 SSE 20 30 11 16 1031.3 1032.2 0.0
23/09:00pm 3.8 -1.7 3.8 100 0.0 S 22 28 12 15 1030.9 1031.7 0.0
23/08:30pm 4.0 -0.9 4.0 100 0.0 S 19 22 10 12 1030.7 1031.5 0.0
23/08:00pm 4.0 -0.2 4.0 100 0.0 SSE 15 20 8 11 1030.2 1031.1 0.0
23/07:30pm 4.1 -0.4 4.1 100 0.0 SSE 17 22 9 12 1030.3 1031.2 0.0
23/07:00pm 4.0 -0.5 4.0 100 0.0 SSE 17 24 9 13 1030.0 1030.9 0.0
23/06:30pm 3.8 -0.8 3.8 100 0.0 SSE 17 24 9 13 1029.9 1030.8 0.0
23/06:00pm 4.0 -0.5 4.0 100 0.0 S 17 22 9 12 1029.7 1030.6 0.0
23/05:30pm 4.0 -0.2 4.0 100 0.0 S 15 19 8 10 1029.9 1030.8 0.0
23/05:00pm 4.7 0.7 4.7 100 0.0 SSE 15 19 8 10 1029.9 1030.8 0.0
23/04:30pm 5.2 0.9 5.2 100 0.0 SSE 17 22 9 12 1029.6 1030.5 0.0
23/04:00pm 6.1 1.6 6.1 100 0.0 SSE 19 24 10 13 1029.6 1030.5 0.0
23/03:30pm 6.4 1.8 6.4 100 0.0 S 20 26 11 14 1029.5 1030.3 0.0
23/03:00pm 6.4 2.3 6.4 100 0.0 SSE 17 22 9 12 1029.5 1030.3 0.0
23/02:30pm 5.9 0.8 5.9 100 0.0 SSE 22 28 12 15 1029.4 1030.2 0.0
23/02:00pm 6.1 1.6 6.1 100 0.0 SSE 19 28 10 15 1029.3 1030.1 0.0
23/01:30pm 6.1 1.6 6.1 100 0.0 S 19 24 10 13 1029.5 1030.3 0.0
23/01:00pm 5.6 1.0 5.6 100 0.0 S 19 26 10 14 1029.9 1030.8 0.0
23/12:57pm 5.7 1.1 5.7 100 0.0 S 19 24 10 13 1029.9 1030.8 0.0
23/12:51pm 5.3 0.4 5.3 100 0.0 S 20 26 11 14 1029.9 1030.8 0.0
23/12:30pm 5.2 -0.8 5.2 100 0.0 S 26 32 14 17 1029.8 1030.7 0.0
23/12:00pm 5.2 0.3 5.2 100 0.0 S 20 28 11 15 1030.0 1030.9 0.0
23/11:30am 5.0 0.1 5.0 100 0.0 S 20 26 11 14 1030.2 1031.1 0.0
23/11:00am 4.9 0.1 4.9 100 0.0 SSE 19 22 10 12 1030.4 1031.3 0.0
23/10:30am 4.3 -0.8 4.3 100 0.0 S 20 24 11 13 1030.6 1031.4 0.0
23/10:00am 4.1 -0.4 4.1 100 0.0 S 17 20 9 11 1030.6 1031.4 0.0
23/09:30am 3.8 -1.2 3.8 100 0.0 S 19 22 10 12 1030.3 1031.2 0.0
23/09:00am 3.6 -1.4 3.6 100 0.0 S 19 22 10 12 1030.1 1031.0 0.4
23/08:30am 3.5 -1.1 3.5 100 0.0 S 17 20 9 11 1030.0 1030.9 0.4
23/08:00am 3.1 -2.2 3.1 100 0.0 S 20 22 11 12 1029.6 1030.5 0.4
23/07:30am 3.2 -1.9 3.2 100 0.0 S 19 22 10 12 1029.4 1030.2 0.4
23/07:00am 3.5 -1.1 3.5 100 0.0 SSE 17 20 9 11 1029.4 1030.2 0.4
23/06:30am 3.6 -1.4 3.6 100 0.0 S 19 22 10 12 1029.0 1029.8 0.4
23/06:00am 3.4 -1.8 3.4 100 0.0 S 20 24 11 13 1028.7 1029.5 0.4
23/05:30am 3.6 -1.6 3.6 100 0.0 S 20 24 11 13 1028.6 1029.4 0.4
23/05:00am 3.4 -1.3 3.4 100 0.0 S 17 22 9 12 1028.7 1029.5 0.4
23/04:30am 3.5 -1.7 3.5 100 0.0 S 20 24 11 13 1028.7 1029.5 0.4
23/04:00am 3.6 -1.4 3.6 100 0.0 S 19 24 10 13 1028.7 1029.5 0.2
23/03:30am 3.7 -1.3 3.7 100 0.0 S 19 24 10 13 1028.7 1029.5 0.2
23/03:00am 3.8 -0.8 3.8 100 0.0 S 17 20 9 11 1028.7 1029.5 0.2
23/02:30am 3.8 -1.4 3.8 100 0.0 S 20 24 11 13 1028.6 1029.4 0.2
23/02:00am 3.6 -1.4 3.6 100 0.0 S 19 24 10 13 1028.4 1029.3 0.2
23/01:30am 3.4 -0.9 3.4 100 0.0 S 15 22 8 12 1028.4 1029.3 0.2
23/01:00am 3.6 -0.6 3.6 100 0.0 SSW 15 22 8 12 1028.6 1029.4 0.2
23/12:49am 3.5 -0.8 3.5 100 0.0 SSW 15 20 8 11 1028.6 1029.4 0.2
23/12:30am 3.6 -0.6 3.6 100 0.0 SSW 15 19 8 10 1028.8 1029.6 0.2
23/12:00am 3.6 -1.0 3.6 100 0.0 SSW 17 22 9 12 1028.7 1029.5 0.2
 
Date/Time
EST
Temp
°C
App
Temp
°C
Dew
Point
°C
Rel
Hum
%
Delta-T
°C
Wind Press
QNH
hPa
Press
MSL
hPa
Rain since
9am
mm
Dir  Spd
km/h
Gust
km/h
Spd
kts
Gust
kts
22/11:39pm 3.6 -0.6 3.6 100 0.0 SSW 15 20 8 11 1028.8 1029.6 0.2
22/11:38pm 3.6 -1.0 3.6 100 0.0 SSW 17 22 9 12 1028.8 1029.6 0.2
22/11:30pm 3.7 -0.9 3.7 100 0.0 SSW 17 22 9 12 1028.7 1029.5 0.2
22/11:14pm 3.7 -0.9 3.7 100 0.0 SSW 17 22 9 12 1028.8 1029.6 0.2
22/11:00pm 3.8 -0.4 3.8 100 0.0 SSW 15 19 8 10 1028.8 1029.6 0.2
22/10:30pm 4.2 1.2 4.2 100 0.0 S 9 15 5 8 1028.8 1029.6 0.2
22/10:09pm 4.6 1.3 4.6 100 0.0 S 11 17 6 9 1028.8 1029.6 0.2
22/10:00pm 4.6 1.3 4.6 100 0.0 S 11 15 6 8 1028.8 1029.6 0.2
22/09:44pm 4.7 1.0 4.6 99 0.0 S 13 17 7 9 1028.8 1029.6 0.2
22/09:30pm 4.9 1.3 4.8 99 0.0 SSW 13 19 7 10 1028.9 1029.7 0.2
22/09:00pm 4.9 0.9 4.9 100 0.0 S 15 20 8 11 1029.0 1029.8 0.2
22/08:30pm 4.7 0.3 4.7 100 0.0 S 17 22 9 12 1029.1 1029.9 0.2
22/08:00pm 4.5 -0.3 4.5 100 0.0 S 19 22 10 12 1029.2 1030.0 0.2
22/07:32pm 4.6 0.2 4.6 100 0.0 SSE 17 20 9 11 1029.3 1030.1 0.2
22/07:30pm 4.6 -0.2 4.6 100 0.0 SSE 19 20 10 11 1029.3 1030.1 0.2
22/07:24pm 4.6 -0.2 4.6 100 0.0 SSE 19 20 10 11 1029.3 1030.1 0.2
22/07:00pm 4.8 0.4 4.8 100 0.0 SSE 17 19 9 10 1029.2 1030.0 0.2
22/06:36pm 5.2 1.3 5.2 100 0.0 SSE 15 20 8 11 1029.3 1030.1 0.2
22/06:30pm 5.2 0.9 5.2 100 0.0 SSE 17 20 9 11 1029.3 1030.1 0.2
22/06:00pm 5.2 0.9 5.1 99 0.0 SSE 17 22 9 12 1029.3 1030.1 0.2
22/05:59pm 5.1 0.7 5.0 99 0.0 SSE 17 22 9 12 1029.2 1030.0 0.2
22/05:58pm 5.2 0.9 5.1 99 0.0 S 17 22 9 12 1029.2 1030.0 0.2
22/05:42pm 5.4 1.1 5.3 99 0.0 S 17 20 9 11 1029.2 1030.0 0.2
22/05:30pm 5.3 1.0 5.2 99 0.0 S 17 20 9 11 1029.1 1029.9 0.2
22/05:00pm 5.6 1.4 5.5 99 0.0 SSE 17 20 9 11 1029.1 1029.9 0.2
22/04:30pm 6.1 1.4 6.0 99 0.0 SSE 20 24 11 13 1029.0 1029.8 0.2
22/04:00pm 6.5 1.5 6.4 99 0.0 SSE 22 28 12 15 1028.8 1029.6 0.2
22/03:30pm 6.6 2.6 6.5 99 0.0 SSE 17 22 9 12 1028.8 1029.6 0.2
22/03:00pm 6.5 2.1 6.5 100 0.0 SSE 19 24 10 13 1028.8 1029.6 0.2
22/02:59pm 6.5 2.1 6.5 100 0.0 SSE 19 24 10 13 1028.8 1029.6 0.2

Other formats

Comma delimited format used in spreadsheet applications
http://www.bom.gov.au/fwo/IDV60801/IDV60801.94860.axf

JavaScript Object Notation format (JSON) in row-major order
http://www.bom.gov.au/fwo/IDV60801/IDV60801.94860.json

Data quality

Most of these data are generated automatically and are frequently updated. Quality checks on data are not normally performed. It is possible for incorrect values to appear. Refer to information at About Latest Weather Observations and please check the disclaimer before using these data.